Time;durP1;ratioP1;P1;durP2;ratioP2;P2;SDS_P1;SDS_P2;PMS_P1;PMS_P2;Temp;Humidity;BMP_temperature;BMP_pressure;BME280_temperature;BME280_humidity;BME280_pressure;Samples;Min_cycle;Max_cycle;Signal;HPM_P1;HPM_P2
2020/12/30 00:02:20;;;;;;;7.43;6.72;;;6.10;99.90;;;;;;5010847;28;20250;-29
2020/12/30 00:04:50;;;;;;;11.05;8.43;;;6.10;99.90;;;;;;5012440;28;20199;-29
2020/12/30 00:07:21;;;;;;;9.35;8.35;;;6.30;99.90;;;;;;5011689;28;20738;-29
2020/12/30 00:09:51;;;;;;;17.05;13.25;;;6.30;99.90;;;;;;5012282;28;20279;-29
2020/12/30 00:12:22;;;;;;;19.65;16.40;;;6.10;99.90;;;;;;5011624;28;20231;-30
2020/12/30 00:14:52;;;;;;;18.30;15.05;;;6.20;99.90;;;;;;5012196;28;20297;-30
2020/12/30 00:17:22;;;;;;;20.83;15.25;;;6.40;99.90;;;;;;5018225;28;20635;-29
2020/12/30 00:19:52;;;;;;;24.15;21.55;;;6.50;99.90;;;;;;5031627;28;20212;-30
2020/12/30 00:22:24;;;;;;;20.45;15.95;;;6.40;99.90;;;;;;5021162;28;20205;-30
2020/12/30 00:24:54;;;;;;;17.92;14.98;;;6.40;99.90;;;;;;5031216;28;20202;-30
2020/12/30 00:27:24;;;;;;;20.60;15.05;;;6.40;99.90;;;;;;5014878;28;20542;-30
2020/12/30 00:29:54;;;;;;;17.40;14.45;;;6.20;99.90;;;;;;5030965;28;20203;-30
2020/12/30 00:32:24;;;;;;;17.58;12.73;;;6.30;99.90;;;;;;5020087;28;20199;-29
2020/12/30 00:34:54;;;;;;;23.77;21.27;;;6.40;99.90;;;;;;5017272;28;20190;-29
2020/12/30 00:37:25;;;;;;;25.00;22.45;;;6.20;99.90;;;;;;5017208;28;20234;-29
2020/12/30 00:39:55;;;;;;;25.63;23.02;;;6.00;99.90;;;;;;5000627;28;20255;-30
2020/12/30 00:42:30;;;;;;;15.13;13.65;;;6.10;99.90;;;;;;5009195;28;20207;-29
2020/12/30 00:45:01;;;;;;;16.30;14.60;;;6.00;99.90;;;;;;5008010;28;20195;-30
2020/12/30 00:47:31;;;;;;;20.13;17.92;;;6.00;99.90;;;;;;5011221;28;20195;-30
2020/12/30 00:50:01;;;;;;;15.88;13.23;;;5.90;99.90;;;;;;5026033;28;20194;-29
2020/12/30 00:52:32;;;;;;;14.70;13.07;;;5.90;99.90;;;;;;5030780;28;20206;-29
2020/12/30 00:55:03;;;;;;;16.98;12.63;;;5.90;99.90;;;;;;5031256;28;20206;-29
2020/12/30 00:57:34;;;;;;;14.20;12.38;;;5.90;99.90;;;;;;5016819;28;20218;-29
2020/12/30 01:00:04;;;;;;;14.50;13.10;;;5.90;99.90;;;;;;5020712;28;20199;-28
2020/12/30 01:02:34;;;;;;;13.57;11.93;;;6.00;99.90;;;;;;5026924;28;20188;-28
2020/12/30 01:05:05;;;;;;;14.45;12.88;;;6.00;99.90;;;;;;5017096;28;20194;-29
2020/12/30 01:07:37;;;;;;;14.40;12.93;;;6.00;99.90;;;;;;5024803;28;20698;-28
2020/12/30 01:10:07;;;;;;;18.15;13.50;;;5.90;99.90;;;;;;5023369;28;20215;-28
2020/12/30 01:12:39;;;;;;;15.50;12.80;;;6.00;99.90;;;;;;5022343;28;20226;-28
2020/12/30 01:15:09;;;;;;;14.98;13.38;;;6.00;99.90;;;;;;5008102;28;20207;-28
2020/12/30 01:17:40;;;;;;;17.27;15.43;;;5.90;99.90;;;;;;5023883;28;20329;-29
2020/12/30 01:20:10;;;;;;;18.25;16.35;;;6.00;99.90;;;;;;5022528;28;20199;-29
2020/12/30 01:22:41;;;;;;;22.63;18.40;;;5.90;99.90;;;;;;5010296;28;20265;-28
2020/12/30 01:25:11;;;;;;;22.30;18.02;;;5.80;99.90;;;;;;5010425;28;20187;-29
2020/12/30 01:27:41;;;;;;;16.90;14.95;;;5.80;99.90;;;;;;5009000;28;20305;-29
2020/12/30 01:30:11;;;;;;;16.17;14.40;;;5.80;99.90;;;;;;5010026;28;20215;-29
2020/12/30 01:32:41;;;;;;;18.15;15.18;;;5.90;99.90;;;;;;5012990;28;20211;-29
2020/12/30 01:35:11;;;;;;;16.88;15.18;;;6.00;99.90;;;;;;5010431;28;20666;-29
2020/12/30 01:37:43;;;;;;;15.90;14.10;;;5.90;99.90;;;;;;5010449;28;20219;-29
2020/12/30 01:40:13;;;;;;;16.42;14.10;;;6.00;99.90;;;;;;5024092;28;20659;-29
2020/12/30 01:42:45;;;;;;;17.58;15.10;;;5.90;99.90;;;;;;5016950;28;20206;-29
2020/12/30 01:45:16;;;;;;;15.25;13.65;;;5.90;99.90;;;;;;5009581;28;20184;-29
2020/12/30 01:47:50;;;;;;;17.40;15.60;;;6.00;99.90;;;;;;5010104;28;20195;-29
2020/12/30 01:50:21;;;;;;;16.83;13.80;;;6.00;99.90;;;;;;5010741;28;20191;-29
2020/12/30 01:52:54;;;;;;;15.00;13.55;;;6.00;99.90;;;;;;5010016;28;20647;-30
2020/12/30 01:55:26;;;;;;;15.43;13.82;;;6.10;99.90;;;;;;5008056;28;20187;-29
2020/12/30 01:57:57;;;;;;;16.65;14.95;;;6.00;99.90;;;;;;5009501;28;20223;-29
2020/12/30 02:00:27;;;;;;;18.00;15.18;;;6.00;99.90;;;;;;5022464;28;20231;-29
2020/12/30 02:03:03;;;;;;;17.70;16.10;;;5.90;99.90;;;;;;5009954;28;20536;-30
2020/12/30 02:05:35;;;;;;;19.88;17.02;;;5.80;99.90;;;;;;5010224;28;20191;-29
2020/12/30 02:08:07;;;;;;;24.60;17.27;;;5.80;99.90;;;;;;5017426;28;20232;-29
2020/12/30 02:10:37;;;;;;;18.98;15.77;;;5.70;99.90;;;;;;5029062;28;20199;-30
2020/12/30 02:13:07;;;;;;;16.98;15.18;;;5.90;99.90;;;;;;5029521;28;20304;-30
2020/12/30 02:15:37;;;;;;;15.93;13.95;;;5.90;99.90;;;;;;5024175;28;20254;-29
2020/12/30 02:18:07;;;;;;;19.90;16.20;;;5.90;99.90;;;;;;4998603;28;20223;-29
2020/12/30 02:20:37;;;;;;;16.60;14.23;;;6.00;99.90;;;;;;5010001;28;20277;-29
2020/12/30 02:23:10;;;;;;;17.20;15.40;;;5.90;99.90;;;;;;5016069;28;20207;-33
2020/12/30 02:25:41;;;;;;;15.23;13.55;;;5.90;99.90;;;;;;5021807;28;20293;-29
2020/12/30 02:28:13;;;;;;;16.27;14.65;;;5.90;99.90;;;;;;5010668;28;20214;-29
2020/12/30 02:30:43;;;;;;;15.77;14.18;;;6.00;99.90;;;;;;5026289;28;20202;-29
2020/12/30 02:33:13;;;;;;;16.02;13.82;;;5.90;99.90;;;;;;5029701;28;20202;-29
2020/12/30 02:35:43;;;;;;;17.02;15.00;;;5.90;99.90;;;;;;5011851;28;20358;-29
2020/12/30 02:38:13;;;;;;;18.90;14.52;;;5.80;99.90;;;;;;5010395;28;20308;-30
2020/12/30 02:40:44;;;;;;;19.50;15.20;;;5.80;99.90;;;;;;5009979;28;20214;-30
2020/12/30 02:43:17;;;;;;;16.90;15.25;;;5.90;99.90;;;;;;5009604;28;20218;-35
2020/12/30 02:45:48;;;;;;;16.77;14.98;;;5.80;99.90;;;;;;5008756;28;20191;-29
2020/12/30 02:48:18;;;;;;;18.17;16.25;;;5.70;99.90;;;;;;5020874;28;20592;-29
2020/12/30 02:50:48;;;;;;;19.42;17.15;;;5.60;99.90;;;;;;5010765;28;20611;-28
2020/12/30 02:53:18;;;;;;;19.27;17.38;;;5.70;99.90;;;;;;5009700;28;20199;-29
2020/12/30 02:55:49;;;;;;;21.58;17.17;;;5.70;99.90;;;;;;5013103;28;20199;-28
2020/12/30 02:58:19;;;;;;;17.50;15.48;;;5.70;99.90;;;;;;5006594;28;20273;-28
2020/12/30 03:00:49;;;;;;;17.88;15.60;;;5.70;99.90;;;;;;5008837;28;20704;-28
2020/12/30 03:03:19;;;;;;;19.33;16.35;;;5.70;99.90;;;;;;5007436;28;20231;-29
2020/12/30 03:05:49;;;;;;;18.42;16.52;;;5.60;99.90;;;;;;5009668;28;20208;-29
2020/12/30 03:08:19;;;;;;;26.33;20.98;;;5.60;99.90;;;;;;5011615;28;20619;-29
2020/12/30 03:10:50;;;;;;;20.88;17.95;;;5.60;99.90;;;;;;5014184;28;20206;-28
2020/12/30 03:13:20;;;;;;;22.90;18.70;;;5.70;99.90;;;;;;5012885;28;20195;-29
2020/12/30 03:15:50;;;;;;;19.05;16.05;;;5.70;99.90;;;;;;5010256;28;20289;-29
2020/12/30 03:18:21;;;;;;;19.65;17.25;;;5.70;99.90;;;;;;4999702;28;20215;-28
2020/12/30 03:20:51;;;;;;;25.05;16.00;;;5.70;99.90;;;;;;5012335;28;20206;-29
2020/12/30 03:23:21;;;;;;;14.95;13.45;;;5.60;99.90;;;;;;5011775;28;20302;-29
2020/12/30 03:25:52;;;;;;;15.25;13.65;;;5.60;99.90;;;;;;5012280;28;20207;-28
2020/12/30 03:28:22;;;;;;;18.73;16.88;;;5.70;99.90;;;;;;5012624;28;20203;-29
2020/12/30 03:30:52;;;;;;;22.63;18.52;;;5.70;99.90;;;;;;5011989;28;20207;-29
2020/12/30 03:33:22;;;;;;;17.70;16.00;;;5.70;99.90;;;;;;5012662;28;20199;-29
2020/12/30 03:35:52;;;;;;;20.45;16.80;;;5.70;99.90;;;;;;5013052;28;20227;-29
2020/12/30 03:38:22;;;;;;;18.35;16.55;;;5.80;99.90;;;;;;5013165;28;20231;-29
2020/12/30 03:40:54;;;;;;;19.48;17.40;;;5.70;99.90;;;;;;5012565;28;20287;-30
2020/12/30 03:43:24;;;;;;;17.83;16.02;;;5.60;99.90;;;;;;5012566;28;20219;-33
2020/12/30 03:45:54;;;;;;;19.95;16.48;;;5.60;99.90;;;;;;5012354;28;20253;-29
2020/12/30 03:48:24;;;;;;;21.17;16.40;;;5.70;99.90;;;;;;5012519;28;20199;-29
2020/12/30 03:50:54;;;;;;;19.50;13.65;;;5.60;99.90;;;;;;5012337;28;20608;-29
2020/12/30 03:53:24;;;;;;;18.65;14.38;;;5.60;99.90;;;;;;5011812;28;20784;-29
2020/12/30 03:55:55;;;;;;;16.13;14.43;;;5.50;99.90;;;;;;5008052;28;20262;-29
2020/12/30 03:58:25;;;;;;;16.55;14.95;;;5.60;99.90;;;;;;5012196;28;20215;-29
2020/12/30 04:00:55;;;;;;;14.43;13.05;;;5.70;99.90;;;;;;5011082;28;20187;-29
2020/12/30 04:03:25;;;;;;;17.30;14.85;;;5.60;99.90;;;;;;5012518;28;20271;-29
2020/12/30 04:05:55;;;;;;;16.27;13.95;;;5.60;99.90;;;;;;5007627;28;20227;-29
2020/12/30 04:08:25;;;;;;;15.20;13.30;;;5.70;99.90;;;;;;4992877;28;20215;-30
2020/12/30 04:10:57;;;;;;;16.60;14.98;;;5.60;99.90;;;;;;5004686;28;20265;-28
2020/12/30 04:13:27;;;;;;;16.05;14.35;;;5.60;99.90;;;;;;5015376;28;20202;-29
2020/12/30 04:15:57;;;;;;;17.25;15.43;;;5.60;99.90;;;;;;5012168;28;20199;-28
2020/12/30 04:18:27;;;;;;;17.42;15.65;;;5.50;99.90;;;;;;5011170;28;20238;-29
2020/12/30 04:20:57;;;;;;;18.80;15.80;;;5.50;99.90;;;;;;5011603;28;20203;-28
2020/12/30 04:23:27;;;;;;;15.20;13.60;;;5.50;99.90;;;;;;5012308;28;20207;-28
2020/12/30 04:25:58;;;;;;;15.23;13.48;;;5.50;99.90;;;;;;5005087;28;20282;-28
2020/12/30 04:28:28;;;;;;;15.35;13.75;;;5.60;99.90;;;;;;5011604;28;20214;-28
2020/12/30 04:30:58;;;;;;;14.57;13.18;;;5.70;99.90;;;;;;5011325;28;20203;-28
2020/12/30 04:33:28;;;;;;;14.40;12.90;;;5.70;99.90;;;;;;5011807;28;20219;-28
2020/12/30 04:35:58;;;;;;;13.93;12.60;;;5.60;99.90;;;;;;5011503;28;20223;-28
2020/12/30 04:38:28;;;;;;;12.68;11.45;;;5.60;99.90;;;;;;5010453;28;20246;-29
2020/12/30 04:41:00;;;;;;;19.30;14.75;;;5.60;99.90;;;;;;5011178;28;20611;-28
2020/12/30 04:43:31;;;;;;;19.85;17.77;;;5.50;99.90;;;;;;5006787;28;20270;-28
2020/12/30 04:46:03;;;;;;;17.80;16.00;;;5.50;99.90;;;;;;5010791;28;20270;-29
2020/12/30 04:48:34;;;;;;;17.48;15.77;;;5.50;99.90;;;;;;5009592;28;20607;-28
2020/12/30 04:51:05;;;;;;;21.60;19.55;;;5.50;99.90;;;;;;5008410;28;20187;-28
2020/12/30 04:53:36;;;;;;;18.85;15.68;;;5.50;99.90;;;;;;5007638;28;20729;-28
2020/12/30 04:56:09;;;;;;;15.95;14.10;;;5.50;99.90;;;;;;5010609;28;20191;-29
2020/12/30 04:58:40;;;;;;;15.00;13.45;;;5.40;99.90;;;;;;5011239;28;20390;-29
2020/12/30 05:01:14;;;;;;;14.10;12.63;;;5.50;99.90;;;;;;5010529;28;20199;-29
2020/12/30 05:03:47;;;;;;;14.23;12.95;;;5.40;99.90;;;;;;5011442;28;20195;-29
2020/12/30 05:06:18;;;;;;;16.08;14.27;;;5.50;99.90;;;;;;5011468;28;20200;-29
2020/12/30 05:08:48;;;;;;;15.48;14.05;;;5.30;99.90;;;;;;5011456;28;20199;-29
2020/12/30 05:11:22;;;;;;;15.38;13.55;;;5.40;99.90;;;;;;5010155;28;20235;-30
2020/12/30 05:13:52;;;;;;;15.40;13.70;;;5.30;99.90;;;;;;5011273;28;20655;-29
2020/12/30 05:16:22;;;;;;;15.40;13.90;;;5.30;99.90;;;;;;5010735;28;20207;-29
2020/12/30 05:18:53;;;;;;;14.98;13.35;;;5.20;99.90;;;;;;5011085;28;20221;-29
2020/12/30 05:21:25;;;;;;;13.48;12.27;;;5.10;99.90;;;;;;5010829;28;20183;-29
2020/12/30 05:23:57;;;;;;;14.38;12.93;;;5.20;99.90;;;;;;5010840;28;20207;-29
2020/12/30 05:26:30;;;;;;;15.95;13.15;;;5.20;99.90;;;;;;5010178;28;20195;-29
2020/12/30 05:29:01;;;;;;;16.45;14.70;;;5.10;99.90;;;;;;5002666;28;20204;-29
2020/12/30 05:31:33;;;;;;;17.20;15.23;;;5.10;99.90;;;;;;5008498;28;20651;-29
2020/12/30 05:34:03;;;;;;;16.17;14.48;;;5.20;99.90;;;;;;5010417;28;20222;-29
2020/12/30 05:36:33;;;;;;;16.15;13.90;;;5.20;99.90;;;;;;5003491;28;20205;-29
2020/12/30 05:39:05;;;;;;;16.98;15.15;;;5.20;99.90;;;;;;5004181;28;20223;-29
2020/12/30 05:41:36;;;;;;;17.17;15.48;;;5.30;99.90;;;;;;5001299;28;20192;-29
2020/12/30 05:44:19;;;;;;;15.68;13.98;;;5.30;99.90;;;;;;5008025;28;20187;-30
2020/12/30 05:46:49;;;;;;;15.20;13.70;;;5.40;99.90;;;;;;5009232;28;20191;-29
2020/12/30 05:49:35;;;;;;;15.68;14.07;;;5.50;99.90;;;;;;5010166;28;20614;-29
2020/12/30 05:52:16;;;;;;;17.15;15.35;;;5.40;99.90;;;;;;5004610;28;20235;-33
2020/12/30 05:54:51;;;;;;;15.82;14.23;;;5.40;99.90;;;;;;5010194;28;20242;-28
2020/12/30 05:57:24;;;;;;;16.42;14.73;;;5.40;99.90;;;;;;5008799;28;20221;-28
2020/12/30 05:59:56;;;;;;;14.50;13.20;;;5.50;99.90;;;;;;5009760;28;20213;-29
2020/12/30 06:02:31;;;;;;;16.27;14.60;;;5.50;99.90;;;;;;5009703;28;20199;-28
2020/12/30 06:05:12;;;;;;;15.98;14.00;;;5.50;99.90;;;;;;5010333;28;20217;-29
2020/12/30 06:07:43;;;;;;;18.73;14.20;;;5.40;99.90;;;;;;5004628;28;20253;-28
2020/12/30 06:10:15;;;;;;;18.33;16.02;;;5.30;99.90;;;;;;5009788;28;20191;-29
2020/12/30 06:12:54;;;;;;;18.88;16.60;;;5.20;99.90;;;;;;5008839;28;20247;-28
2020/12/30 06:15:25;;;;;;;19.58;17.40;;;5.20;99.90;;;;;;5007038;28;20199;-29
2020/12/30 06:17:57;;;;;;;18.10;16.20;;;5.20;99.90;;;;;;4997473;28;20227;-29
2020/12/30 06:20:32;;;;;;;17.45;15.63;;;5.20;99.90;;;;;;5007280;28;20647;-28
2020/12/30 06:23:04;;;;;;;19.08;16.75;;;5.30;99.90;;;;;;5003382;28;20242;-29
2020/12/30 06:25:35;;;;;;;18.42;16.65;;;5.20;99.90;;;;;;4997726;28;20195;-29
2020/12/30 06:28:09;;;;;;;17.67;15.80;;;5.20;99.90;;;;;;5009197;28;20195;-29
2020/12/30 06:30:41;;;;;;;19.40;16.58;;;5.30;99.90;;;;;;5007942;28;20198;-29
2020/12/30 06:33:12;;;;;;;19.75;17.80;;;5.20;99.90;;;;;;4991990;28;20204;-29
2020/12/30 06:35:43;;;;;;;22.65;17.73;;;5.30;99.90;;;;;;4996459;28;20227;-29
2020/12/30 06:38:23;;;;;;;17.92;16.02;;;5.20;99.90;;;;;;4999934;28;20651;-29
2020/12/30 06:40:57;;;;;;;19.08;17.02;;;5.30;99.90;;;;;;5008860;28;20202;-29
2020/12/30 06:43:41;;;;;;;18.60;16.75;;;5.30;99.90;;;;;;5009542;28;20252;-29
2020/12/30 06:46:12;;;;;;;20.27;17.23;;;5.30;99.90;;;;;;4998306;28;20201;-30
2020/12/30 06:48:55;;;;;;;20.42;17.48;;;5.30;99.90;;;;;;5000596;28;20670;-29
2020/12/30 06:51:35;;;;;;;19.30;17.38;;;5.30;99.90;;;;;;4993129;28;20239;-30
2020/12/30 06:54:07;;;;;;;20.15;17.90;;;5.40;99.90;;;;;;4990534;28;20280;-29
2020/12/30 06:56:38;;;;;;;17.83;15.82;;;5.30;99.90;;;;;;4997052;28;20196;-30
2020/12/30 06:59:10;;;;;;;18.67;16.83;;;5.20;99.90;;;;;;5007902;28;20593;-29
2020/12/30 07:02:04;;;;;;;18.88;17.08;;;5.20;99.90;;;;;;5009790;28;20733;-30
2020/12/30 07:04:36;;;;;;;18.90;17.00;;;5.10;99.90;;;;;;4996202;28;20293;-30
2020/12/30 07:07:21;;;;;;;19.40;17.60;;;5.10;99.90;;;;;;5008282;28;20192;-29
2020/12/30 07:09:51;;;;;;;19.85;17.75;;;5.10;99.90;;;;;;5008819;28;20674;-30
2020/12/30 07:12:21;;;;;;;17.63;15.90;;;5.00;99.90;;;;;;4997009;28;20223;-29
2020/12/30 07:14:52;;;;;;;19.38;17.38;;;5.00;99.90;;;;;;5009106;28;20290;-30
2020/12/30 07:17:23;;;;;;;18.95;16.95;;;5.00;99.90;;;;;;5009113;28;20270;-28
2020/12/30 07:19:52;;;;;;;19.67;16.60;;;5.00;99.90;;;;;;5008020;28;20195;-29
2020/12/30 07:22:27;;;;;;;17.83;15.90;;;5.00;99.90;;;;;;5003969;28;20250;-29
2020/12/30 07:24:58;;;;;;;18.85;15.27;;;5.00;99.90;;;;;;4997279;28;20245;-28
2020/12/30 07:27:30;;;;;;;18.33;16.00;;;4.90;99.90;;;;;;5008889;28;20633;-28
2020/12/30 07:30:01;;;;;;;16.80;14.90;;;4.90;99.90;;;;;;5008806;28;20588;-29
2020/12/30 07:32:33;;;;;;;19.63;16.00;;;4.90;99.90;;;;;;5009012;28;20196;-29
2020/12/30 07:35:04;;;;;;;17.95;15.57;;;4.90;99.90;;;;;;5009239;28;20545;-29
2020/12/30 07:37:34;;;;;;;15.95;14.35;;;4.90;99.90;;;;;;5009000;28;20753;-29
2020/12/30 07:40:04;;;;;;;14.55;12.88;;;5.00;99.90;;;;;;5009616;28;20554;-29
2020/12/30 07:42:34;;;;;;;14.07;12.23;;;5.00;99.90;;;;;;5008974;28;20668;-29
2020/12/30 07:45:08;;;;;;;15.10;13.50;;;5.00;99.90;;;;;;5009221;28;20555;-29
2020/12/30 07:47:39;;;;;;;14.55;12.43;;;5.00;99.90;;;;;;5009041;28;20636;-29
2020/12/30 07:50:09;;;;;;;13.13;11.90;;;5.00;99.90;;;;;;5008856;28;20212;-29
2020/12/30 07:52:38;;;;;;;13.75;12.13;;;5.10;99.90;;;;;;5009504;28;20261;-29
2020/12/30 07:55:09;;;;;;;13.32;12.02;;;4.90;99.90;;;;;;5007260;28;20196;-29
2020/12/30 07:57:39;;;;;;;15.02;11.98;;;4.90;99.90;;;;;;5000240;28;20761;-29
2020/12/30 08:00:13;;;;;;;14.10;11.35;;;4.90;99.90;;;;;;4992837;28;20707;-29
2020/12/30 08:02:44;;;;;;;12.85;11.00;;;4.90;99.90;;;;;;4993453;28;20196;-29
2020/12/30 08:05:14;;;;;;;13.35;11.20;;;4.90;99.90;;;;;;4994491;28;20196;-29
2020/12/30 08:07:44;;;;;;;14.18;12.20;;;5.00;99.90;;;;;;5012525;28;20560;-29
2020/12/30 08:10:21;;;;;;;15.52;12.57;;;5.00;99.90;;;;;;5012232;28;20264;-29
2020/12/30 08:12:51;;;;;;;15.43;12.77;;;5.10;99.90;;;;;;5012691;28;20242;-29
2020/12/30 08:15:23;;;;;;;13.98;12.57;;;5.00;99.90;;;;;;5012596;28;20608;-29
2020/12/30 08:17:53;;;;;;;13.82;12.32;;;4.90;99.90;;;;;;5012783;28;20226;-29
2020/12/30 08:20:23;;;;;;;14.93;13.23;;;4.90;99.90;;;;;;5012780;28;20273;-29
2020/12/30 08:22:58;;;;;;;16.58;13.85;;;5.00;99.90;;;;;;5012557;28;20226;-30
2020/12/30 08:25:28;;;;;;;16.00;14.48;;;5.00;99.90;;;;;;5000580;28;20207;-29
2020/12/30 08:27:58;;;;;;;15.75;14.15;;;5.10;99.90;;;;;;4997698;28;20397;-30
2020/12/30 08:30:32;;;;;;;18.13;16.27;;;5.10;99.90;;;;;;5012057;28;20195;-29
2020/12/30 08:33:09;;;;;;;17.50;15.68;;;5.10;99.90;;;;;;5012180;28;20245;-29
2020/12/30 08:35:46;;;;;;;18.80;16.02;;;5.10;99.90;;;;;;5011748;28;20559;-29
2020/12/30 08:38:19;;;;;;;19.50;17.60;;;5.10;99.90;;;;;;5011921;28;20312;-29
2020/12/30 08:40:53;;;;;;;19.75;17.08;;;5.10;99.90;;;;;;4995857;28;20196;-30
2020/12/30 08:43:40;;;;;;;18.35;16.38;;;5.10;99.90;;;;;;4994539;28;20191;-29
2020/12/30 08:46:20;;;;;;;18.08;16.17;;;5.10;99.90;;;;;;5011118;28;20661;-30
2020/12/30 08:48:52;;;;;;;20.90;17.23;;;5.20;99.90;;;;;;5009605;28;20311;-29
2020/12/30 08:51:33;;;;;;;18.42;16.35;;;5.10;99.90;;;;;;4993174;28;20629;-29
2020/12/30 08:54:14;;;;;;;20.45;18.45;;;5.10;99.90;;;;;;4992288;28;20250;-29
2020/12/30 08:56:46;;;;;;;19.55;17.45;;;5.10;99.90;;;;;;5010226;28;20733;-29
2020/12/30 08:59:25;;;;;;;17.90;16.10;;;5.20;99.90;;;;;;5011259;28;20267;-29
2020/12/30 09:02:12;;;;;;;17.27;15.63;;;5.20;99.90;;;;;;5011617;28;20282;-29
2020/12/30 09:04:55;;;;;;;16.65;15.15;;;5.10;99.90;;;;;;5010648;28;20652;-29
2020/12/30 09:07:28;;;;;;;19.80;17.35;;;5.10;99.90;;;;;;5003408;28;20666;-29
2020/12/30 09:10:10;;;;;;;22.02;16.70;;;5.10;99.90;;;;;;5007755;28;20195;-29
2020/12/30 09:12:40;;;;;;;18.13;16.33;;;5.10;99.90;;;;;;5010716;28;20235;-28
2020/12/30 09:15:10;;;;;;;20.63;16.52;;;5.10;99.90;;;;;;5007148;28;20214;-28
2020/12/30 09:17:41;;;;;;;18.90;16.90;;;5.10;99.90;;;;;;5009393;28;20234;-28
2020/12/30 09:20:13;;;;;;;18.40;16.50;;;5.10;99.90;;;;;;5000182;28;20188;-28
2020/12/30 09:22:44;;;;;;;20.98;18.95;;;5.00;99.90;;;;;;5011070;28;20191;-28
2020/12/30 09:25:28;;;;;;;20.70;18.48;;;5.00;99.90;;;;;;5009717;28;20282;-28
2020/12/30 09:28:00;;;;;;;21.33;19.13;;;5.10;99.90;;;;;;5005283;28;20192;-28
2020/12/30 09:30:35;;;;;;;20.58;17.05;;;5.10;99.90;;;;;;4991008;28;20575;-29
2020/12/30 09:33:14;;;;;;;19.33;17.50;;;5.10;99.90;;;;;;4997971;28;20187;-28
2020/12/30 09:35:44;;;;;;;19.67;17.38;;;5.10;99.90;;;;;;4997287;28;20224;-29
2020/12/30 09:38:18;;;;;;;21.90;18.98;;;5.00;99.90;;;;;;4999774;28;20207;-29
2020/12/30 09:40:50;;;;;;;21.65;19.45;;;5.00;99.90;;;;;;5010896;28;20563;-28
2020/12/30 09:43:21;;;;;;;22.00;19.73;;;5.20;99.90;;;;;;5010763;28;20195;-28
2020/12/30 09:45:59;;;;;;;19.95;17.90;;;5.10;99.90;;;;;;5010640;28;20195;-28
2020/12/30 09:48:30;;;;;;;20.85;18.73;;;5.10;99.90;;;;;;5010837;28;20195;-29
2020/12/30 09:51:00;;;;;;;23.30;19.15;;;5.10;99.90;;;;;;5010136;28;20191;-28
2020/12/30 09:53:30;;;;;;;19.73;17.20;;;5.10;99.90;;;;;;5010611;28;20258;-28
2020/12/30 09:56:00;;;;;;;22.52;19.45;;;5.10;99.90;;;;;;4996632;28;20199;-28
2020/12/30 09:58:30;;;;;;;20.63;18.63;;;5.00;99.90;;;;;;5004909;28;20860;-29
2020/12/30 10:01:01;;;;;;;18.35;16.45;;;5.10;99.90;;;;;;5009956;28;20281;-29
2020/12/30 10:03:32;;;;;;;17.60;14.98;;;5.10;99.90;;;;;;5010379;28;20227;-29
2020/12/30 10:06:02;;;;;;;19.23;15.45;;;5.10;99.90;;;;;;5003638;28;20210;-28
2020/12/30 10:08:33;;;;;;;14.98;13.45;;;5.10;99.90;;;;;;5010266;28;20196;-28
2020/12/30 10:11:03;;;;;;;16.40;14.10;;;5.10;99.90;;;;;;5009757;28;20602;-28
2020/12/30 10:13:33;;;;;;;13.30;12.00;;;5.10;99.90;;;;;;5010196;28;20192;-28
2020/12/30 10:16:03;;;;;;;14.95;12.90;;;5.00;99.90;;;;;;5009412;28;20295;-29
2020/12/30 10:18:34;;;;;;;13.15;11.75;;;5.00;99.90;;;;;;5009065;28;20223;-28
2020/12/30 10:21:04;;;;;;;13.05;11.60;;;5.00;99.90;;;;;;5006431;28;20258;-28
2020/12/30 10:23:34;;;;;;;13.38;11.82;;;4.90;99.90;;;;;;5009474;28;20197;-28
2020/12/30 10:26:04;;;;;;;14.93;11.15;;;4.80;99.90;;;;;;5003392;28;20206;-28
2020/12/30 10:28:34;;;;;;;12.77;11.43;;;4.90;99.90;;;;;;4995518;28;20250;-29
2020/12/30 10:31:04;;;;;;;15.23;13.23;;;5.00;99.90;;;;;;4996794;28;20276;-29
2020/12/30 10:33:35;;;;;;;13.57;12.20;;;5.00;99.90;;;;;;5010058;28;20321;-29
2020/12/30 10:36:07;;;;;;;12.98;11.60;;;5.00;99.90;;;;;;5009741;28;20191;-29
2020/12/30 10:38:38;;;;;;;12.70;11.45;;;5.00;99.90;;;;;;5010218;28;20713;-29
2020/12/30 10:41:08;;;;;;;12.98;11.68;;;5.00;99.90;;;;;;5009698;28;20458;-28
2020/12/30 10:43:40;;;;;;;13.70;12.30;;;5.10;99.90;;;;;;4993117;28;20246;-34
2020/12/30 10:46:13;;;;;;;14.30;12.90;;;5.10;99.90;;;;;;4989917;28;20563;-28
2020/12/30 10:48:46;;;;;;;14.07;12.60;;;5.00;99.90;;;;;;4990346;28;20597;-29
2020/12/30 10:51:18;;;;;;;14.75;13.15;;;5.10;99.90;;;;;;5008619;28;20283;-29
2020/12/30 10:53:48;;;;;;;16.17;12.82;;;5.20;99.90;;;;;;5009876;28;20520;-29
2020/12/30 10:56:18;;;;;;;14.70;13.20;;;5.20;99.90;;;;;;5009050;28;20548;-28
2020/12/30 10:58:48;;;;;;;17.58;13.40;;;5.20;99.90;;;;;;5009769;28;20253;-28
2020/12/30 11:01:18;;;;;;;14.15;12.75;;;5.20;99.90;;;;;;5009021;28;20385;-29
2020/12/30 11:03:49;;;;;;;16.13;12.43;;;5.10;99.90;;;;;;5009611;28;20217;-29
2020/12/30 11:06:21;;;;;;;14.52;13.13;;;5.20;99.90;;;;;;5008377;28;20313;-28
2020/12/30 11:08:51;;;;;;;14.52;13.10;;;5.20;99.90;;;;;;5009863;28;20195;-29
2020/12/30 11:11:21;;;;;;;12.38;11.18;;;5.20;99.90;;;;;;5008935;28;20238;-29
2020/12/30 11:13:51;;;;;;;12.82;11.35;;;5.30;99.90;;;;;;5008122;28;20211;-28
2020/12/30 11:16:21;;;;;;;13.63;12.23;;;5.20;99.90;;;;;;5001514;28;20199;-29
2020/12/30 11:18:52;;;;;;;13.30;12.00;;;5.20;99.90;;;;;;5009677;28;20603;-28
2020/12/30 11:21:22;;;;;;;14.30;12.30;;;5.10;99.90;;;;;;5009226;28;20192;-29
2020/12/30 11:23:52;;;;;;;13.88;12.10;;;5.20;99.90;;;;;;5009673;28;20280;-29
2020/12/30 11:26:22;;;;;;;13.80;12.07;;;5.30;99.90;;;;;;5008951;28;20597;-29
2020/12/30 11:28:52;;;;;;;12.98;11.63;;;5.30;99.90;;;;;;5007857;28;20207;-29
2020/12/30 11:31:22;;;;;;;13.82;12.43;;;5.30;99.90;;;;;;5012801;28;20628;-29
2020/12/30 11:33:54;;;;;;;14.00;11.80;;;5.30;99.90;;;;;;5013282;28;20250;-29
2020/12/30 11:36:28;;;;;;;13.73;12.38;;;5.30;99.90;;;;;;5012433;28;20253;-29
2020/12/30 11:38:58;;;;;;;13.45;12.02;;;5.30;99.90;;;;;;5012909;28;20582;-29
2020/12/30 11:41:29;;;;;;;13.18;11.75;;;5.30;99.90;;;;;;5012505;28;20689;-29
2020/12/30 11:43:59;;;;;;;14.15;12.68;;;5.20;99.90;;;;;;5001742;28;20652;-29
2020/12/30 11:46:29;;;;;;;15.80;11.80;;;5.20;99.90;;;;;;5012379;28;20207;-29
2020/12/30 11:49:00;;;;;;;15.13;11.45;;;5.20;99.90;;;;;;5013262;28;20206;-29
2020/12/30 11:51:31;;;;;;;13.40;12.10;;;5.30;99.90;;;;;;5012946;28;20274;-29
2020/12/30 11:54:01;;;;;;;14.25;12.63;;;5.30;99.90;;;;;;5013163;28;20230;-29
2020/12/30 11:56:31;;;;;;;15.93;12.07;;;5.30;99.90;;;;;;5011787;28;20752;-29
2020/12/30 11:59:01;;;;;;;13.90;11.23;;;5.20;99.90;;;;;;5012505;28;20682;-29
2020/12/30 12:01:34;;;;;;;14.02;11.75;;;5.20;99.90;;;;;;5012474;28;20202;-28
2020/12/30 12:04:05;;;;;;;13.85;12.07;;;5.30;99.90;;;;;;5012654;28;20629;-29
2020/12/30 12:06:35;;;;;;;12.13;10.93;;;5.30;99.90;;;;;;5012797;28;20248;-29
2020/12/30 12:09:05;;;;;;;13.52;11.30;;;5.30;99.90;;;;;;5012684;28;20554;-29
2020/12/30 12:11:37;;;;;;;12.50;11.20;;;5.30;99.90;;;;;;5010733;28;20231;-29
2020/12/30 12:14:07;;;;;;;13.15;11.15;;;5.30;99.90;;;;;;5012548;28;20203;-29
2020/12/30 12:16:40;;;;;;;12.05;10.57;;;5.20;99.90;;;;;;5012828;28;20195;-29
2020/12/30 12:19:11;;;;;;;11.85;10.73;;;5.30;99.90;;;;;;5011945;28;20223;-29
2020/12/30 12:21:44;;;;;;;12.40;10.85;;;5.20;99.90;;;;;;5012674;28;20642;-28
2020/12/30 12:24:15;;;;;;;12.07;10.02;;;5.30;99.90;;;;;;5012301;28;20295;-29
2020/12/30 12:26:45;;;;;;;13.70;9.65;;;5.40;99.90;;;;;;5011383;28;20195;-29
2020/12/30 12:29:42;;;;;;;10.70;9.60;;;5.40;99.90;;;;;;5011993;28;20570;-29
2020/12/30 12:32:13;;;;;;;10.63;9.63;;;5.30;99.90;;;;;;5012438;28;20203;-30
2020/12/30 12:34:47;;;;;;;10.68;9.63;;;5.30;99.90;;;;;;5011815;28;20301;-29
2020/12/30 12:37:18;;;;;;;10.70;9.60;;;5.30;99.90;;;;;;5012399;28;20191;-29
2020/12/30 12:39:49;;;;;;;9.48;8.48;;;5.30;99.90;;;;;;5011881;28;20219;-30
2020/12/30 12:42:20;;;;;;;10.15;9.15;;;5.30;99.90;;;;;;5011036;28;20222;-29
2020/12/30 12:44:50;;;;;;;8.10;6.85;;;5.30;99.90;;;;;;5011722;28;20191;-29
2020/12/30 12:47:21;;;;;;;9.27;8.35;;;5.40;99.90;;;;;;5006397;28;20196;-29
2020/12/30 12:49:52;;;;;;;9.80;7.75;;;5.30;99.90;;;;;;5011969;28;20191;-30
2020/12/30 12:52:22;;;;;;;7.53;6.80;;;5.30;99.90;;;;;;5007050;28;20216;-29
2020/12/30 12:54:52;;;;;;;8.30;7.60;;;5.20;99.90;;;;;;5011692;28;20228;-29
2020/12/30 12:57:22;;;;;;;8.55;6.60;;;5.20;99.90;;;;;;5004530;28;20207;-29
2020/12/30 12:59:52;;;;;;;9.80;7.50;;;5.20;99.90;;;;;;5002393;28;20228;-31
2020/12/30 13:02:22;;;;;;;8.20;7.40;;;5.20;99.90;;;;;;5011551;28;20203;-31